createdAt,value
2022-09-01T00:00:02.186Z,9.57
2022-09-01T00:02:32.403Z,7.97
2022-09-01T00:04:59.572Z,7.90
2022-09-01T00:07:32.537Z,8.27
2022-09-01T00:09:59.630Z,7.37
2022-09-01T00:12:27.178Z,7.67
2022-09-01T00:14:53.880Z,10.93
2022-09-01T00:17:20.768Z,8.97
2022-09-01T00:19:47.628Z,8.17
2022-09-01T00:22:14.784Z,7.87
2022-09-01T00:24:41.657Z,8.97
2022-09-01T00:27:08.346Z,11.40
2022-09-01T00:29:36.189Z,10.70
2022-09-01T00:32:03.241Z,8.27
2022-09-01T00:34:30.057Z,9.53
2022-09-01T00:36:57.017Z,8.93
2022-09-01T00:39:23.729Z,8.07
2022-09-01T00:41:51.396Z,7.93
2022-09-01T00:44:23.310Z,10.30
2022-09-01T00:46:55.388Z,8.30
2022-09-01T00:49:35.326Z,8.37
2022-09-01T00:52:14.939Z,8.83
2022-09-01T00:54:43.603Z,9.27
2022-09-01T00:57:12.790Z,8.40
2022-09-01T00:59:43.602Z,9.03
2022-09-01T01:02:11.379Z,7.90
2022-09-01T01:04:38.352Z,11.17
2022-09-01T01:07:06.436Z,8.13
2022-09-01T01:09:35.880Z,8.93
2022-09-01T01:12:04.056Z,11.87
2022-09-01T01:14:32.052Z,10.70
2022-09-01T01:17:00.093Z,9.00
2022-09-01T01:20:11.948Z,8.43
2022-09-01T01:23:00.669Z,9.73
2022-09-01T01:25:27.443Z,7.77
2022-09-01T01:28:04.171Z,7.30
2022-09-01T01:30:35.546Z,8.00
2022-09-01T01:33:03.439Z,8.77
2022-09-01T01:35:31.945Z,8.23
2022-09-01T01:37:58.712Z,9.43
2022-09-01T01:40:26.187Z,8.00
2022-09-01T01:42:54.316Z,8.03
2022-09-01T01:45:22.392Z,7.43
2022-09-01T01:47:56.477Z,7.73
2022-09-01T01:50:26.438Z,8.13
2022-09-01T01:52:58.304Z,7.33
2022-09-01T01:55:29.039Z,7.07
2022-09-01T01:57:58.572Z,8.10
2022-09-01T02:00:30.784Z,8.20
2022-09-01T02:02:57.904Z,7.57
2022-09-01T02:05:29.254Z,10.57
2022-09-01T02:08:00.007Z,9.93
2022-09-01T02:10:31.597Z,10.40
2022-09-01T02:13:07.120Z,9.17
2022-09-01T02:15:38.312Z,12.10
2022-09-01T02:18:05.807Z,10.67
2022-09-01T02:20:32.981Z,9.43
2022-09-01T02:23:09.394Z,9.77
2022-09-01T02:25:42.883Z,9.73
2022-09-01T02:28:22.641Z,10.17
2022-09-01T02:30:51.961Z,9.70
2022-09-01T02:33:21.846Z,10.27
2022-09-01T02:35:50.637Z,13.10
2022-09-01T02:38:18.202Z,10.57
2022-09-01T02:40:45.477Z,12.77
2022-09-01T02:43:13.552Z,12.03
2022-09-01T02:45:42.763Z,10.33
2022-09-01T02:48:11.003Z,11.43
2022-09-01T02:50:38.310Z,10.57
2022-09-01T02:53:10.308Z,11.17
2022-09-01T02:55:37.475Z,10.67
2022-09-01T02:58:04.406Z,10.70
2022-09-01T03:00:33.491Z,12.20
2022-09-01T03:03:01.148Z,12.27
2022-09-01T03:05:29.821Z,11.10
2022-09-01T03:07:57.968Z,11.80
2022-09-01T03:10:39.599Z,13.23
2022-09-01T03:13:08.372Z,13.23
2022-09-01T03:15:36.590Z,10.30
2022-09-01T03:18:03.914Z,12.97
2022-09-01T03:20:33.656Z,12.33
2022-09-01T03:23:00.830Z,12.83
2022-09-01T03:25:29.969Z,13.13
2022-09-01T03:27:59.243Z,12.93
2022-09-01T03:30:26.912Z,12.13
2022-09-01T03:32:54.628Z,11.87
2022-09-01T03:35:22.452Z,13.00
2022-09-01T03:37:49.167Z,13.13
2022-09-01T03:40:16.266Z,14.27
2022-09-01T03:42:43.880Z,12.13
2022-09-01T03:45:12.770Z,11.57
2022-09-01T03:47:43.120Z,15.27
2022-09-01T03:50:23.443Z,11.07
2022-09-01T03:52:55.075Z,12.77
2022-09-01T03:55:26.851Z,11.03
2022-09-01T03:57:55.963Z,11.43
2022-09-01T04:00:24.716Z,11.87
2022-09-01T04:02:56.211Z,10.57
2022-09-01T04:05:29.064Z,10.40
2022-09-01T04:07:58.045Z,10.77
2022-09-01T04:10:25.353Z,10.00
2022-09-01T04:12:52.307Z,10.63
2022-09-01T04:15:19.111Z,11.70
2022-09-01T04:18:04.513Z,12.20
2022-09-01T04:20:39.875Z,9.70
2022-09-01T04:23:11.033Z,11.43
2022-09-01T04:25:39.156Z,10.70
2022-09-01T04:28:13.116Z,10.00
2022-09-01T04:30:40.995Z,10.30
2022-09-01T04:33:13.206Z,12.27
2022-09-01T04:35:40.291Z,10.93
2022-09-01T04:38:08.470Z,10.70
2022-09-01T04:40:39.343Z,10.60
2022-09-01T04:43:06.530Z,10.13
2022-09-01T04:45:36.562Z,10.03
2022-09-01T04:48:06.821Z,9.77
2022-09-01T04:50:35.019Z,10.83
2022-09-01T04:53:19.634Z,9.43
2022-09-01T04:55:49.944Z,11.83
2022-09-01T04:58:19.085Z,10.17
2022-09-01T05:00:48.246Z,10.67
2022-09-01T05:03:21.633Z,9.87
2022-09-01T05:06:03.751Z,10.30
2022-09-01T05:08:35.419Z,10.40
2022-09-01T05:11:08.060Z,16.40
2022-09-01T05:13:46.640Z,9.93
2022-09-01T05:16:16.362Z,12.37
2022-09-01T05:18:48.985Z,9.37
2022-09-01T05:21:18.186Z,12.53
2022-09-01T05:23:45.579Z,13.10
2022-09-01T05:26:18.054Z,9.20
2022-09-01T05:28:46.809Z,8.73
2022-09-01T05:31:14.930Z,10.27
2022-09-01T05:33:46.060Z,12.30
2022-09-01T05:36:13.855Z,8.63
2022-09-01T05:38:42.365Z,9.13
2022-09-01T05:41:15.046Z,7.73
2022-09-01T05:43:47.830Z,14.13
2022-09-01T05:46:17.125Z,9.87
2022-09-01T05:48:45.007Z,9.27
2022-09-01T05:51:40.230Z,10.87
2022-09-01T05:54:08.168Z,8.17
2022-09-01T05:56:43.260Z,7.90
2022-09-01T05:59:27.789Z,11.00
2022-09-01T06:01:58.912Z,8.60
2022-09-01T06:04:26.988Z,10.87
2022-09-01T06:07:07.025Z,8.87
2022-09-01T06:09:45.086Z,7.17
2022-09-01T06:12:18.212Z,6.87
2022-09-01T06:14:46.159Z,9.50
2022-09-01T06:17:16.777Z,8.00
2022-09-01T06:19:44.610Z,8.90
2022-09-01T06:22:11.529Z,7.23
2022-09-01T06:24:43.485Z,7.27
2022-09-01T06:27:10.884Z,6.20
2022-09-01T06:29:39.934Z,7.37
2022-09-01T06:32:09.858Z,6.20
2022-09-01T06:34:46.210Z,6.67
2022-09-01T06:37:13.546Z,6.40
2022-09-01T06:39:44.156Z,5.73
2022-09-01T06:42:13.030Z,5.70
2022-09-01T06:44:47.831Z,5.47
2022-09-01T06:47:15.756Z,6.00
2022-09-01T06:49:45.369Z,6.60
2022-09-01T06:52:24.643Z,8.03
2022-09-01T06:54:55.063Z,5.80
2022-09-01T07:00:16.577Z,5.00
2022-09-01T07:02:45.679Z,4.00
2022-09-01T07:14:19.721Z,3.57
2022-09-01T07:16:51.864Z,3.20
2022-09-01T07:19:20.818Z,2.63
2022-09-01T07:22:09.491Z,2.40
2022-09-01T07:24:43.916Z,4.87
2022-09-01T07:27:36.223Z,3.73
2022-09-01T07:30:20.870Z,2.53
2022-09-01T07:32:51.078Z,3.13
2022-09-01T07:35:22.506Z,2.57
2022-09-01T07:43:53.027Z,3.90
2022-09-01T07:52:31.550Z,3.10
2022-09-01T07:54:58.814Z,4.47
2022-09-01T07:57:26.567Z,6.77
2022-09-01T07:59:55.938Z,3.37
2022-09-01T08:02:43.988Z,3.93
2022-09-01T08:05:16.100Z,3.53
2022-09-01T08:07:58.934Z,4.47
2022-09-01T08:10:31.260Z,3.80
2022-09-01T08:12:58.252Z,3.60
2022-09-01T08:16:06.757Z,4.97
2022-09-01T08:18:14.927Z,6.80
2022-09-01T08:20:45.808Z,3.87
2022-09-01T08:23:37.795Z,3.33
2022-09-01T08:26:06.046Z,7.60
2022-09-01T08:28:33.772Z,6.67
2022-09-01T08:31:00.779Z,3.93
2022-09-01T08:33:29.505Z,3.70
2022-09-01T08:35:57.336Z,2.57
2022-09-01T08:38:25.538Z,3.90
2022-09-01T08:40:57.020Z,5.57
2022-09-01T08:43:37.923Z,2.90
2022-09-01T08:46:12.868Z,3.33
2022-09-01T08:51:51.984Z,5.03
2022-09-01T08:54:29.655Z,2.57
2022-09-01T08:57:09.516Z,3.87
2022-09-01T09:00:12.718Z,3.17
2022-09-01T09:02:45.083Z,6.37
2022-09-01T09:05:33.241Z,2.90
2022-09-01T09:08:09.255Z,4.53
2022-09-01T09:10:49.334Z,3.10
2022-09-01T09:13:19.377Z,4.50
2022-09-01T09:16:07.433Z,5.77
2022-09-01T09:18:39.938Z,6.03
2022-09-01T09:21:25.590Z,7.33
2022-09-01T09:23:58.218Z,7.47
2022-09-01T09:26:24.983Z,3.30
2022-09-01T09:28:51.719Z,6.37
2022-09-01T09:31:25.973Z,5.60
2022-09-01T09:33:53.903Z,4.37
2022-09-01T09:36:25.469Z,4.93
2022-09-01T09:39:09.562Z,4.40
2022-09-01T09:41:37.865Z,5.20
2022-09-01T09:44:17.745Z,1.90
2022-09-01T09:46:46.119Z,2.47
2022-09-01T09:49:34.708Z,2.20
2022-09-01T09:52:10.254Z,4.07
2022-09-01T09:54:38.335Z,1.60
2022-09-01T09:57:16.157Z,2.70
2022-09-01T09:59:59.258Z,2.97
2022-09-01T10:02:33.545Z,3.37
2022-09-01T10:05:02.588Z,2.87
2022-09-01T10:07:34.448Z,2.03
2022-09-01T10:10:04.057Z,2.17
2022-09-01T10:12:31.400Z,3.43
2022-09-01T10:14:58.988Z,2.13
2022-09-01T10:17:29.112Z,2.77
2022-09-01T10:19:58.361Z,2.33
2022-09-01T10:22:25.544Z,1.97
2022-09-01T10:24:52.582Z,2.13
2022-09-01T10:27:26.422Z,6.73
2022-09-01T10:30:20.742Z,3.43
2022-09-01T10:32:54.290Z,3.00
2022-09-01T10:35:23.994Z,4.40
2022-09-01T10:37:51.785Z,2.43
2022-09-01T10:40:31.742Z,1.90
2022-09-01T10:43:00.929Z,1.60
2022-09-01T10:45:36.619Z,2.00
2022-09-01T10:48:51.809Z,1.23
2022-09-01T10:51:28.160Z,2.43
2022-09-01T10:54:02.241Z,4.63
2022-09-01T10:56:45.220Z,1.83
2022-09-01T10:59:32.842Z,2.20
2022-09-01T11:02:35.271Z,3.30
2022-09-01T11:05:00.393Z,2.47
2022-09-01T11:07:58.120Z,2.83
2022-09-01T11:10:40.939Z,3.80
2022-09-01T11:13:22.953Z,3.27
2022-09-01T11:15:50.017Z,2.60
2022-09-01T11:18:27.622Z,1.17
2022-09-01T11:20:55.634Z,1.20
2022-09-01T11:23:27.673Z,3.87
2022-09-01T11:28:44.596Z,1.40
2022-09-01T11:31:15.474Z,2.17
2022-09-01T11:33:42.620Z,1.83
2022-09-01T11:36:09.230Z,1.30
2022-09-01T11:38:46.649Z,2.07
2022-09-01T11:41:24.179Z,1.73
2022-09-01T11:44:00.882Z,1.70
2022-09-01T11:46:30.395Z,1.60
2022-09-01T11:48:57.690Z,3.60
2022-09-01T11:51:24.562Z,1.23
2022-09-01T11:53:52.158Z,2.67
2022-09-01T11:56:21.907Z,2.20
2022-09-01T11:58:48.540Z,1.90
2022-09-01T12:01:15.182Z,1.50
2022-09-01T12:03:42.195Z,1.97
2022-09-01T12:06:10.859Z,3.37
2022-09-01T12:08:39.940Z,2.63
2022-09-01T12:11:06.556Z,1.80
2022-09-01T12:13:33.484Z,1.40
2022-09-01T12:16:18.705Z,1.83
2022-09-01T12:18:48.226Z,1.30
2022-09-01T12:21:20.709Z,3.67
2022-09-01T12:23:47.722Z,1.43
2022-09-01T12:26:23.595Z,2.40
2022-09-01T12:28:50.387Z,1.87
2022-09-01T12:31:24.374Z,2.83
2022-09-01T12:33:52.344Z,2.23
2022-09-01T12:36:27.461Z,1.77
2022-09-01T12:38:55.522Z,1.67
2022-09-01T12:41:39.098Z,2.73
2022-09-01T12:44:24.896Z,2.53
2022-09-01T12:46:51.531Z,3.70
2022-09-01T12:49:28.570Z,4.00
2022-09-01T12:52:14.666Z,1.60
2022-09-01T12:54:42.051Z,1.97
2022-09-01T12:57:09.543Z,1.93
2022-09-01T12:59:37.550Z,2.90
2022-09-01T13:02:23.041Z,3.00
2022-09-01T13:04:50.496Z,2.27
2022-09-01T13:07:18.052Z,2.73
2022-09-01T13:09:45.940Z,3.80
2022-09-01T13:12:17.434Z,2.20
2022-09-01T13:14:44.108Z,1.83
2022-09-01T13:17:13.862Z,2.70
2022-09-01T13:19:41.351Z,2.90
2022-09-01T13:22:07.989Z,2.63
2022-09-01T13:24:34.705Z,1.90
2022-09-01T13:29:48.576Z,2.93
2022-09-01T13:32:19.566Z,3.43
2022-09-01T13:34:47.436Z,1.53
2022-09-01T13:37:14.268Z,2.10
2022-09-01T13:39:40.986Z,2.10
2022-09-01T13:42:07.957Z,2.20
2022-09-01T13:44:35.403Z,1.80
2022-09-01T13:52:36.064Z,5.07
2022-09-01T13:55:02.683Z,3.00
2022-09-01T13:57:32.821Z,3.25
2022-09-01T14:00:03.976Z,2.20
2022-09-01T14:02:38.051Z,2.10
2022-09-01T14:05:04.910Z,2.80
2022-09-01T14:07:32.467Z,2.53
2022-09-01T14:09:59.326Z,1.70
2022-09-01T14:12:26.099Z,2.40
2022-09-01T14:17:39.509Z,3.83
2022-09-01T14:20:07.857Z,2.47
2022-09-01T14:22:38.331Z,2.20
2022-09-01T14:25:05.624Z,2.13
2022-09-01T14:27:32.384Z,4.07
2022-09-01T14:29:59.186Z,1.90
2022-09-01T14:32:27.447Z,2.53
2022-09-01T14:34:54.334Z,1.70
2022-09-01T14:37:21.454Z,2.50
2022-09-01T14:39:49.550Z,3.23
2022-09-01T14:42:16.175Z,2.20
2022-09-01T14:44:43.738Z,2.07
2022-09-01T14:47:12.427Z,2.40
2022-09-01T14:49:46.786Z,2.87
2022-09-01T14:52:14.437Z,2.10
2022-09-01T14:54:44.008Z,2.00
2022-09-01T14:59:57.467Z,1.87
2022-09-01T15:02:25.406Z,2.67
2022-09-01T15:04:52.087Z,3.60
2022-09-01T15:07:18.779Z,1.80
2022-09-01T15:09:45.465Z,3.70
2022-09-01T15:12:12.192Z,4.83
2022-09-01T15:14:39.045Z,3.10
2022-09-01T15:17:07.069Z,2.40
2022-09-01T15:19:33.695Z,1.80
2022-09-01T15:22:01.018Z,2.77
2022-09-01T15:24:28.668Z,3.53
2022-09-01T15:26:57.807Z,1.60
2022-09-01T15:29:24.523Z,3.47
2022-09-01T15:31:51.203Z,1.90
2022-09-01T15:34:19.031Z,2.50
2022-09-01T15:36:45.752Z,1.80
2022-09-01T15:39:12.483Z,2.83
2022-09-01T15:41:39.407Z,1.80
2022-09-01T15:44:07.253Z,2.10
2022-09-01T15:46:34.672Z,2.97
2022-09-01T15:49:02.575Z,2.30
2022-09-01T15:51:34.376Z,3.40
2022-09-01T15:54:03.377Z,4.43
2022-09-01T15:56:31.367Z,2.00
2022-09-01T15:59:01.487Z,2.10
2022-09-01T16:01:29.734Z,2.13
2022-09-01T16:03:56.607Z,2.03
2022-09-01T16:06:23.279Z,5.23
2022-09-01T16:08:50.706Z,2.87
2022-09-01T16:11:17.371Z,3.17
2022-09-01T16:13:44.120Z,2.17
2022-09-01T16:16:21.858Z,2.20
2022-09-01T16:18:55.028Z,3.10
2022-09-01T16:21:22.250Z,2.30
2022-09-01T16:23:49.875Z,3.60
2022-09-01T16:26:20.783Z,2.50
2022-09-01T16:28:49.344Z,2.87
2022-09-01T16:31:19.223Z,2.67
2022-09-01T16:33:48.151Z,2.30
2022-09-01T16:36:48.176Z,4.10
2022-09-01T16:39:30.200Z,2.77
2022-09-01T16:42:06.410Z,3.40
2022-09-01T16:44:41.822Z,2.73
2022-09-01T16:47:27.772Z,3.53
2022-09-01T16:49:54.422Z,2.53
2022-09-01T16:52:26.608Z,3.90
2022-09-01T16:55:14.052Z,2.93
2022-09-01T16:57:49.980Z,2.30
2022-09-01T17:00:27.103Z,4.23
2022-09-01T17:02:59.889Z,2.93
2022-09-01T17:05:31.125Z,3.10
2022-09-01T17:07:57.878Z,3.93
2022-09-01T17:10:31.368Z,3.63
2022-09-01T17:12:58.339Z,4.63
2022-09-01T17:15:27.516Z,3.47
2022-09-01T17:18:06.167Z,2.43
2022-09-01T17:20:39.875Z,2.60
2022-09-01T17:23:12.034Z,4.07
2022-09-01T17:25:45.986Z,2.50
2022-09-01T17:28:16.772Z,2.93
2022-09-01T17:30:56.132Z,2.73
2022-09-01T17:33:28.788Z,3.63
2022-09-01T17:35:56.023Z,3.30
2022-09-01T17:38:30.202Z,2.40
2022-09-01T17:40:56.909Z,2.93
2022-09-01T17:43:43.045Z,2.37
2022-09-01T17:46:28.455Z,2.30
2022-09-01T17:48:58.013Z,3.87
2022-09-01T17:51:27.379Z,2.70
2022-09-01T17:53:56.821Z,3.17
2022-09-01T17:56:39.100Z,4.00
2022-09-01T17:59:24.485Z,2.40
2022-09-01T18:02:04.643Z,2.57
2022-09-01T18:04:38.631Z,2.70
2022-09-01T18:07:11.091Z,2.50
2022-09-01T18:09:42.241Z,4.37
2022-09-01T18:12:10.868Z,4.20
2022-09-01T18:14:56.530Z,2.53
2022-09-01T18:17:33.766Z,3.87
2022-09-01T18:20:12.208Z,3.43
2022-09-01T18:22:59.024Z,4.87
2022-09-01T18:25:31.140Z,3.67
2022-09-01T18:27:57.789Z,5.17
2022-09-01T18:30:51.826Z,3.73
2022-09-01T18:33:24.243Z,3.20
2022-09-01T18:36:00.092Z,3.50
2022-09-01T18:38:32.422Z,3.30
2022-09-01T18:41:06.534Z,5.70
2022-09-01T18:43:53.422Z,5.43
2022-09-01T18:46:29.536Z,4.90
2022-09-01T18:49:01.187Z,3.87
2022-09-01T18:51:42.953Z,5.07
2022-09-01T18:54:16.163Z,6.13
2022-09-01T18:57:02.926Z,5.43
2022-09-01T18:59:44.930Z,2.83
2022-09-01T19:02:11.900Z,5.87
2022-09-01T19:04:42.687Z,4.17
2022-09-01T19:07:15.837Z,5.43
2022-09-01T19:09:51.283Z,6.17
2022-09-01T19:12:24.754Z,2.57
2022-09-01T19:15:13.494Z,3.60
2022-09-01T19:17:40.402Z,3.83
2022-09-01T19:20:36.805Z,4.70
2022-09-01T19:23:10.998Z,4.23
2022-09-01T19:25:39.898Z,5.13
2022-09-01T19:28:39.992Z,3.73
2022-09-01T19:31:10.339Z,3.67
2022-09-01T19:33:46.223Z,7.23
2022-09-01T19:36:17.985Z,2.70
2022-09-01T19:38:45.182Z,6.87
2022-09-01T19:41:33.179Z,2.90
2022-09-01T19:44:16.946Z,4.93
2022-09-01T19:46:48.249Z,3.67
2022-09-01T19:49:16.614Z,3.63
2022-09-01T19:51:43.247Z,3.43
2022-09-01T19:54:15.110Z,5.20
2022-09-01T19:56:49.719Z,5.90
2022-09-01T19:59:22.907Z,4.17
2022-09-01T20:01:55.650Z,5.17
2022-09-01T20:04:27.174Z,5.20
2022-09-01T20:07:00.947Z,3.70
2022-09-01T20:09:34.723Z,3.03
2022-09-01T20:12:12.465Z,3.80
2022-09-01T20:14:57.805Z,4.27
2022-09-01T20:17:37.132Z,6.53
2022-09-01T20:20:11.915Z,4.97
2022-09-01T20:22:41.312Z,4.33
2022-09-01T20:25:12.913Z,4.97
2022-09-01T20:27:47.470Z,3.30
2022-09-01T20:30:27.038Z,4.13
2022-09-01T20:33:01.328Z,3.97
2022-09-01T20:35:39.945Z,5.20
2022-09-01T20:38:06.644Z,2.97
2022-09-01T20:40:40.263Z,3.00
2022-09-01T20:43:10.159Z,2.80
2022-09-01T20:45:36.982Z,3.73
2022-09-01T20:48:05.260Z,4.73
2022-09-01T20:50:37.931Z,5.90
2022-09-01T20:53:09.608Z,3.53
2022-09-01T20:55:39.086Z,5.53
2022-09-01T20:58:24.697Z,3.80
2022-09-01T21:00:53.457Z,4.67
2022-09-01T21:03:54.533Z,3.20
2022-09-01T21:06:30.137Z,5.07
2022-09-01T21:09:01.663Z,5.40
2022-09-01T21:11:47.117Z,3.43
2022-09-01T21:14:19.277Z,4.00
2022-09-01T21:17:06.797Z,8.00
2022-09-01T21:19:45.604Z,5.67
2022-09-01T21:22:13.999Z,6.50
2022-09-01T21:24:44.790Z,7.47
2022-09-01T21:27:20.008Z,3.23
2022-09-01T21:29:59.642Z,10.07
2022-09-01T21:32:29.196Z,9.87
2022-09-01T21:34:56.345Z,8.70
2022-09-01T21:37:24.071Z,8.53
2022-09-01T21:39:53.070Z,9.87
2022-09-01T21:42:24.219Z,8.70
2022-09-01T21:44:51.029Z,6.73
2022-09-01T21:47:21.758Z,9.10
2022-09-01T21:49:48.462Z,7.37
2022-09-01T21:52:15.201Z,10.27
2022-09-01T21:54:41.863Z,12.40
2022-09-01T21:57:08.581Z,13.17
2022-09-01T21:59:35.351Z,10.60
2022-09-01T22:02:02.380Z,12.33
2022-09-01T22:04:29.064Z,9.70
2022-09-01T22:06:55.684Z,10.07
2022-09-01T22:09:22.395Z,8.87
2022-09-01T22:11:50.242Z,6.77
2022-09-01T22:14:17.451Z,18.17
2022-09-01T22:16:44.331Z,6.40
2022-09-01T22:19:11.025Z,13.03
2022-09-01T22:21:40.095Z,7.73
2022-09-01T22:24:07.089Z,8.73
2022-09-01T22:26:34.179Z,13.23
2022-09-01T22:29:01.837Z,10.43
2022-09-01T22:31:30.350Z,10.10
2022-09-01T22:33:57.654Z,11.43
2022-09-01T22:36:29.200Z,5.40
2022-09-01T22:38:58.042Z,14.97
2022-09-01T22:41:25.406Z,13.37
2022-09-01T22:43:52.067Z,10.23
2022-09-01T22:46:21.915Z,12.27
2022-09-01T22:48:49.518Z,11.80
2022-09-01T22:51:16.666Z,16.03
2022-09-01T22:53:45.029Z,14.17
2022-09-01T22:56:17.751Z,8.00
2022-09-01T22:58:44.350Z,10.40
2022-09-01T23:01:12.674Z,8.10
2022-09-01T23:03:39.332Z,9.77
2022-09-01T23:06:07.936Z,9.73
2022-09-01T23:08:34.726Z,6.33
2022-09-01T23:11:01.545Z,7.90
2022-09-01T23:13:28.387Z,5.73
2022-09-01T23:15:56.352Z,8.50
2022-09-01T23:18:23.527Z,7.97
2022-09-01T23:20:50.568Z,8.20
2022-09-01T23:23:17.846Z,7.73
2022-09-01T23:25:44.612Z,3.80
2022-09-01T23:28:12.066Z,4.57
2022-09-01T23:30:40.738Z,5.90
2022-09-01T23:33:07.405Z,8.20
2022-09-01T23:35:34.250Z,7.70
2022-09-01T23:38:00.885Z,6.97
2022-09-01T23:40:27.534Z,10.60
2022-09-01T23:42:54.341Z,6.00
2022-09-01T23:45:21.577Z,9.63
2022-09-01T23:47:48.272Z,6.67
2022-09-01T23:50:14.908Z,4.47
2022-09-01T23:52:41.531Z,8.43
2022-09-01T23:55:08.430Z,4.40
2022-09-01T23:57:35.213Z,3.50
